sensor_id;sensor_type;location;lat;lon;timestamp;P1;durP1;ratioP1;P2;durP2;ratioP2
11086;SDS011;5597;47.588;9.642;2023-08-06T00:02:13;2.30;;;2.10;;
11086;SDS011;5597;47.588;9.642;2023-08-06T00:04:39;2.17;;;1.97;;
11086;SDS011;5597;47.588;9.642;2023-08-06T00:07:04;2.53;;;2.20;;
11086;SDS011;5597;47.588;9.642;2023-08-06T00:09:30;2.43;;;2.23;;
11086;SDS011;5597;47.588;9.642;2023-08-06T00:11:56;2.33;;;2.13;;
11086;SDS011;5597;47.588;9.642;2023-08-06T00:14:21;2.40;;;2.20;;
11086;SDS011;5597;47.588;9.642;2023-08-06T00:16:47;2.20;;;2.00;;
11086;SDS011;5597;47.588;9.642;2023-08-06T00:19:13;2.00;;;1.90;;
11086;SDS011;5597;47.588;9.642;2023-08-06T00:21:38;2.30;;;2.10;;
11086;SDS011;5597;47.588;9.642;2023-08-06T00:24:04;2.30;;;2.10;;
11086;SDS011;5597;47.588;9.642;2023-08-06T00:26:30;2.17;;;1.97;;
11086;SDS011;5597;47.588;9.642;2023-08-06T00:28:55;2.20;;;2.00;;
11086;SDS011;5597;47.588;9.642;2023-08-06T00:31:21;2.10;;;1.90;;
11086;SDS011;5597;47.588;9.642;2023-08-06T00:33:47;1.80;;;1.70;;
11086;SDS011;5597;47.588;9.642;2023-08-06T00:36:12;2.30;;;2.10;;
11086;SDS011;5597;47.588;9.642;2023-08-06T00:38:38;2.33;;;2.13;;
11086;SDS011;5597;47.588;9.642;2023-08-06T00:41:03;2.60;;;2.40;;
11086;SDS011;5597;47.588;9.642;2023-08-06T00:43:29;2.10;;;1.90;;
11086;SDS011;5597;47.588;9.642;2023-08-06T00:45:55;2.60;;;2.40;;
11086;SDS011;5597;47.588;9.642;2023-08-06T00:48:21;2.80;;;2.60;;
11086;SDS011;5597;47.588;9.642;2023-08-06T00:50:46;2.60;;;2.40;;
11086;SDS011;5597;47.588;9.642;2023-08-06T00:53:12;2.83;;;2.60;;
11086;SDS011;5597;47.588;9.642;2023-08-06T00:55:38;2.67;;;2.47;;
11086;SDS011;5597;47.588;9.642;2023-08-06T00:58:05;2.50;;;2.30;;
11086;SDS011;5597;47.588;9.642;2023-08-06T01:00:30;2.40;;;2.20;;
11086;SDS011;5597;47.588;9.642;2023-08-06T01:02:56;2.57;;;2.03;;
11086;SDS011;5597;47.588;9.642;2023-08-06T01:05:22;2.40;;;2.20;;
11086;SDS011;5597;47.588;9.642;2023-08-06T01:07:51;2.33;;;2.13;;
11086;SDS011;5597;47.588;9.642;2023-08-06T01:13:22;2.77;;;2.57;;
11086;SDS011;5597;47.588;9.642;2023-08-06T01:15:55;2.37;;;2.17;;
11086;SDS011;5597;47.588;9.642;2023-08-06T01:18:22;2.33;;;2.13;;
11086;SDS011;5597;47.588;9.642;2023-08-06T01:20:48;2.40;;;2.20;;
11086;SDS011;5597;47.588;9.642;2023-08-06T01:23:15;2.60;;;2.40;;
11086;SDS011;5597;47.588;9.642;2023-08-06T01:26:02;2.13;;;1.97;;
11086;SDS011;5597;47.588;9.642;2023-08-06T01:31:30;2.50;;;2.30;;
11086;SDS011;5597;47.588;9.642;2023-08-06T01:33:58;1.90;;;1.80;;
11086;SDS011;5597;47.588;9.642;2023-08-06T01:36:24;2.60;;;2.17;;
11086;SDS011;5597;47.588;9.642;2023-08-06T01:38:52;2.10;;;1.90;;
11086;SDS011;5597;47.588;9.642;2023-08-06T01:41:18;2.40;;;2.20;;
11086;SDS011;5597;47.588;9.642;2023-08-06T01:43:44;2.13;;;1.93;;
11086;SDS011;5597;47.588;9.642;2023-08-06T01:46:10;2.20;;;2.00;;
11086;SDS011;5597;47.588;9.642;2023-08-06T01:48:35;2.00;;;1.90;;
11086;SDS011;5597;47.588;9.642;2023-08-06T01:51:03;2.43;;;2.17;;
11086;SDS011;5597;47.588;9.642;2023-08-06T01:53:30;3.33;;;2.17;;
11086;SDS011;5597;47.588;9.642;2023-08-06T01:55:56;2.20;;;2.00;;
11086;SDS011;5597;47.588;9.642;2023-08-06T01:58:22;2.37;;;2.17;;
11086;SDS011;5597;47.588;9.642;2023-08-06T02:00:48;2.00;;;1.80;;
11086;SDS011;5597;47.588;9.642;2023-08-06T02:03:14;2.40;;;2.20;;
11086;SDS011;5597;47.588;9.642;2023-08-06T02:05:40;2.00;;;1.90;;
11086;SDS011;5597;47.588;9.642;2023-08-06T02:08:05;2.13;;;1.93;;
11086;SDS011;5597;47.588;9.642;2023-08-06T02:10:31;2.20;;;2.00;;
11086;SDS011;5597;47.588;9.642;2023-08-06T02:12:57;2.07;;;1.90;;
11086;SDS011;5597;47.588;9.642;2023-08-06T02:15:22;2.03;;;1.93;;
11086;SDS011;5597;47.588;9.642;2023-08-06T02:17:48;2.20;;;2.00;;
11086;SDS011;5597;47.588;9.642;2023-08-06T02:20:14;1.80;;;1.70;;
11086;SDS011;5597;47.588;9.642;2023-08-06T02:22:39;2.33;;;2.13;;
11086;SDS011;5597;47.588;9.642;2023-08-06T02:25:05;2.37;;;2.17;;
11086;SDS011;5597;47.588;9.642;2023-08-06T02:27:31;2.50;;;2.20;;
11086;SDS011;5597;47.588;9.642;2023-08-06T02:29:57;2.40;;;2.20;;
11086;SDS011;5597;47.588;9.642;2023-08-06T02:32:22;2.10;;;2.00;;
11086;SDS011;5597;47.588;9.642;2023-08-06T02:34:48;1.80;;;1.70;;
11086;SDS011;5597;47.588;9.642;2023-08-06T02:37:13;2.13;;;1.93;;
11086;SDS011;5597;47.588;9.642;2023-08-06T02:39:39;1.90;;;1.80;;
11086;SDS011;5597;47.588;9.642;2023-08-06T02:42:08;2.23;;;2.03;;
11086;SDS011;5597;47.588;9.642;2023-08-06T02:44:34;2.30;;;2.10;;
11086;SDS011;5597;47.588;9.642;2023-08-06T02:47:00;1.90;;;1.80;;
11086;SDS011;5597;47.588;9.642;2023-08-06T02:49:26;3.77;;;1.90;;
11086;SDS011;5597;47.588;9.642;2023-08-06T02:51:52;2.00;;;1.90;;
11086;SDS011;5597;47.588;9.642;2023-08-06T02:54:18;2.00;;;1.90;;
11086;SDS011;5597;47.588;9.642;2023-08-06T02:56:44;2.00;;;1.90;;
11086;SDS011;5597;47.588;9.642;2023-08-06T02:59:11;2.10;;;1.90;;
11086;SDS011;5597;47.588;9.642;2023-08-06T03:01:37;2.33;;;2.00;;
11086;SDS011;5597;47.588;9.642;2023-08-06T03:04:03;2.53;;;2.33;;
11086;SDS011;5597;47.588;9.642;2023-08-06T03:06:29;2.23;;;2.03;;
11086;SDS011;5597;47.588;9.642;2023-08-06T03:08:54;2.33;;;2.13;;
11086;SDS011;5597;47.588;9.642;2023-08-06T03:11:20;2.00;;;1.80;;
11086;SDS011;5597;47.588;9.642;2023-08-06T03:13:46;2.30;;;2.10;;
11086;SDS011;5597;47.588;9.642;2023-08-06T03:16:12;1.80;;;1.70;;
11086;SDS011;5597;47.588;9.642;2023-08-06T03:18:38;2.83;;;2.47;;
11086;SDS011;5597;47.588;9.642;2023-08-06T03:21:04;2.17;;;1.97;;
11086;SDS011;5597;47.588;9.642;2023-08-06T03:23:30;2.40;;;2.20;;
11086;SDS011;5597;47.588;9.642;2023-08-06T03:25:55;2.43;;;2.23;;
11086;SDS011;5597;47.588;9.642;2023-08-06T03:28:21;2.37;;;2.17;;
11086;SDS011;5597;47.588;9.642;2023-08-06T03:30:47;2.30;;;2.10;;
11086;SDS011;5597;47.588;9.642;2023-08-06T03:33:13;2.17;;;1.97;;
11086;SDS011;5597;47.588;9.642;2023-08-06T03:35:39;2.00;;;1.80;;
11086;SDS011;5597;47.588;9.642;2023-08-06T03:38:05;2.20;;;2.00;;
11086;SDS011;5597;47.588;9.642;2023-08-06T03:40:30;2.10;;;1.90;;
11086;SDS011;5597;47.588;9.642;2023-08-06T03:42:56;2.20;;;2.00;;
11086;SDS011;5597;47.588;9.642;2023-08-06T03:45:21;2.20;;;2.00;;
11086;SDS011;5597;47.588;9.642;2023-08-06T03:47:47;2.30;;;2.10;;
11086;SDS011;5597;47.588;9.642;2023-08-06T03:50:13;2.53;;;1.83;;
11086;SDS011;5597;47.588;9.642;2023-08-06T03:52:38;2.00;;;1.90;;
11086;SDS011;5597;47.588;9.642;2023-08-06T03:55:04;2.10;;;2.00;;
11086;SDS011;5597;47.588;9.642;2023-08-06T03:57:30;1.67;;;1.57;;
11086;SDS011;5597;47.588;9.642;2023-08-06T03:59:56;2.80;;;1.67;;
11086;SDS011;5597;47.588;9.642;2023-08-06T04:02:21;2.20;;;2.00;;
11086;SDS011;5597;47.588;9.642;2023-08-06T04:04:47;2.20;;;2.00;;
11086;SDS011;5597;47.588;9.642;2023-08-06T04:07:14;2.10;;;1.90;;
11086;SDS011;5597;47.588;9.642;2023-08-06T04:09:52;2.00;;;1.80;;
11086;SDS011;5597;47.588;9.642;2023-08-06T04:12:28;1.80;;;1.70;;
11086;SDS011;5597;47.588;9.642;2023-08-06T04:14:55;1.90;;;1.70;;
11086;SDS011;5597;47.588;9.642;2023-08-06T04:17:22;1.87;;;1.77;;
11086;SDS011;5597;47.588;9.642;2023-08-06T04:19:52;2.00;;;1.77;;
11086;SDS011;5597;47.588;9.642;2023-08-06T04:22:19;1.90;;;1.80;;
11086;SDS011;5597;47.588;9.642;2023-08-06T04:24:46;1.90;;;1.80;;
11086;SDS011;5597;47.588;9.642;2023-08-06T04:27:13;2.10;;;1.90;;
11086;SDS011;5597;47.588;9.642;2023-08-06T04:29:39;3.07;;;2.03;;
11086;SDS011;5597;47.588;9.642;2023-08-06T04:32:05;1.97;;;1.63;;
11086;SDS011;5597;47.588;9.642;2023-08-06T04:34:33;1.80;;;1.70;;
11086;SDS011;5597;47.588;9.642;2023-08-06T04:36:59;2.60;;;2.00;;
11086;SDS011;5597;47.588;9.642;2023-08-06T04:39:25;2.17;;;1.97;;
11086;SDS011;5597;47.588;9.642;2023-08-06T04:41:51;2.17;;;1.97;;
11086;SDS011;5597;47.588;9.642;2023-08-06T04:44:17;2.13;;;1.77;;
11086;SDS011;5597;47.588;9.642;2023-08-06T04:46:42;2.10;;;1.80;;
11086;SDS011;5597;47.588;9.642;2023-08-06T04:49:08;1.80;;;1.70;;
11086;SDS011;5597;47.588;9.642;2023-08-06T04:51:33;2.43;;;2.23;;
11086;SDS011;5597;47.588;9.642;2023-08-06T04:53:59;4.30;;;3.33;;
11086;SDS011;5597;47.588;9.642;2023-08-06T04:56:25;4.67;;;4.27;;
11086;SDS011;5597;47.588;9.642;2023-08-06T04:58:51;6.50;;;5.90;;
11086;SDS011;5597;47.588;9.642;2023-08-06T05:01:16;9.17;;;8.13;;
11086;SDS011;5597;47.588;9.642;2023-08-06T05:03:42;2.20;;;1.73;;
11086;SDS011;5597;47.588;9.642;2023-08-06T05:06:08;2.57;;;1.90;;
11086;SDS011;5597;47.588;9.642;2023-08-06T05:08:33;3.27;;;1.90;;
11086;SDS011;5597;47.588;9.642;2023-08-06T05:10:59;1.70;;;1.40;;
11086;SDS011;5597;47.588;9.642;2023-08-06T05:13:25;1.70;;;1.60;;
11086;SDS011;5597;47.588;9.642;2023-08-06T05:15:51;2.47;;;1.60;;
11086;SDS011;5597;47.588;9.642;2023-08-06T05:18:21;1.80;;;1.50;;
11086;SDS011;5597;47.588;9.642;2023-08-06T05:20:47;1.57;;;1.30;;
11086;SDS011;5597;47.588;9.642;2023-08-06T05:23:13;1.90;;;1.40;;
11086;SDS011;5597;47.588;9.642;2023-08-06T05:25:39;1.57;;;1.43;;
11086;SDS011;5597;47.588;9.642;2023-08-06T05:28:04;1.43;;;1.23;;
11086;SDS011;5597;47.588;9.642;2023-08-06T05:30:30;2.73;;;1.50;;
11086;SDS011;5597;47.588;9.642;2023-08-06T05:32:56;2.00;;;1.33;;
11086;SDS011;5597;47.588;9.642;2023-08-06T05:35:22;1.83;;;1.00;;
11086;SDS011;5597;47.588;9.642;2023-08-06T05:37:48;1.03;;;0.83;;
11086;SDS011;5597;47.588;9.642;2023-08-06T05:40:14;1.57;;;0.93;;
11086;SDS011;5597;47.588;9.642;2023-08-06T05:42:40;0.93;;;0.70;;
11086;SDS011;5597;47.588;9.642;2023-08-06T05:45:06;1.17;;;0.87;;
11086;SDS011;5597;47.588;9.642;2023-08-06T05:47:32;1.90;;;0.80;;
11086;SDS011;5597;47.588;9.642;2023-08-06T05:49:58;2.07;;;0.60;;
11086;SDS011;5597;47.588;9.642;2023-08-06T05:52:24;1.13;;;0.70;;
11086;SDS011;5597;47.588;9.642;2023-08-06T05:54:49;1.93;;;0.83;;
11086;SDS011;5597;47.588;9.642;2023-08-06T05:57:15;2.40;;;0.70;;
11086;SDS011;5597;47.588;9.642;2023-08-06T05:59:41;1.23;;;0.60;;
11086;SDS011;5597;47.588;9.642;2023-08-06T06:02:07;2.97;;;0.80;;
11086;SDS011;5597;47.588;9.642;2023-08-06T06:04:33;3.30;;;0.70;;
11086;SDS011;5597;47.588;9.642;2023-08-06T06:06:59;1.27;;;0.60;;
11086;SDS011;5597;47.588;9.642;2023-08-06T06:09:25;0.80;;;0.40;;
11086;SDS011;5597;47.588;9.642;2023-08-06T06:11:50;1.63;;;0.80;;
11086;SDS011;5597;47.588;9.642;2023-08-06T06:14:17;1.63;;;0.80;;
11086;SDS011;5597;47.588;9.642;2023-08-06T06:16:44;3.27;;;0.80;;
11086;SDS011;5597;47.588;9.642;2023-08-06T06:19:11;1.70;;;0.90;;
11086;SDS011;5597;47.588;9.642;2023-08-06T06:21:37;3.10;;;0.80;;
11086;SDS011;5597;47.588;9.642;2023-08-06T06:24:04;1.93;;;0.70;;
11086;SDS011;5597;47.588;9.642;2023-08-06T06:26:30;1.67;;;0.73;;
11086;SDS011;5597;47.588;9.642;2023-08-06T06:28:57;1.40;;;0.67;;
11086;SDS011;5597;47.588;9.642;2023-08-06T06:31:23;0.97;;;0.50;;
11086;SDS011;5597;47.588;9.642;2023-08-06T06:33:49;2.27;;;0.73;;
11086;SDS011;5597;47.588;9.642;2023-08-06T06:36:14;1.70;;;0.60;;
11086;SDS011;5597;47.588;9.642;2023-08-06T06:38:40;1.60;;;0.87;;
11086;SDS011;5597;47.588;9.642;2023-08-06T06:41:06;1.17;;;0.93;;
11086;SDS011;5597;47.588;9.642;2023-08-06T06:43:32;2.07;;;0.70;;
11086;SDS011;5597;47.588;9.642;2023-08-06T06:45:58;0.70;;;0.70;;
11086;SDS011;5597;47.588;9.642;2023-08-06T06:48:25;2.27;;;0.70;;
11086;SDS011;5597;47.588;9.642;2023-08-06T06:50:52;1.70;;;1.40;;
11086;SDS011;5597;47.588;9.642;2023-08-06T06:53:17;2.73;;;2.00;;
11086;SDS011;5597;47.588;9.642;2023-08-06T06:55:43;1.33;;;1.10;;
11086;SDS011;5597;47.588;9.642;2023-08-06T06:58:09;0.70;;;0.70;;
11086;SDS011;5597;47.588;9.642;2023-08-06T07:00:35;1.20;;;0.90;;
11086;SDS011;5597;47.588;9.642;2023-08-06T07:03:02;1.00;;;0.70;;
11086;SDS011;5597;47.588;9.642;2023-08-06T07:05:28;1.93;;;1.67;;
11086;SDS011;5597;47.588;9.642;2023-08-06T07:07:54;2.17;;;1.00;;
11086;SDS011;5597;47.588;9.642;2023-08-06T07:10:19;1.07;;;0.90;;
11086;SDS011;5597;47.588;9.642;2023-08-06T07:12:45;0.80;;;0.67;;
11086;SDS011;5597;47.588;9.642;2023-08-06T07:15:11;2.13;;;0.57;;
11086;SDS011;5597;47.588;9.642;2023-08-06T07:17:36;1.00;;;0.67;;
11086;SDS011;5597;47.588;9.642;2023-08-06T07:20:02;0.93;;;0.60;;
11086;SDS011;5597;47.588;9.642;2023-08-06T07:22:29;0.70;;;0.53;;
11086;SDS011;5597;47.588;9.642;2023-08-06T07:24:54;0.90;;;0.70;;
11086;SDS011;5597;47.588;9.642;2023-08-06T07:27:20;1.43;;;0.80;;
11086;SDS011;5597;47.588;9.642;2023-08-06T07:29:46;2.77;;;0.90;;
11086;SDS011;5597;47.588;9.642;2023-08-06T07:32:13;1.60;;;0.97;;
11086;SDS011;5597;47.588;9.642;2023-08-06T07:34:38;0.93;;;0.60;;
11086;SDS011;5597;47.588;9.642;2023-08-06T07:37:04;1.03;;;0.60;;
11086;SDS011;5597;47.588;9.642;2023-08-06T07:39:30;1.33;;;0.70;;
11086;SDS011;5597;47.588;9.642;2023-08-06T07:41:56;0.70;;;0.60;;
11086;SDS011;5597;47.588;9.642;2023-08-06T07:44:22;1.73;;;0.60;;
11086;SDS011;5597;47.588;9.642;2023-08-06T07:46:48;0.50;;;0.50;;
11086;SDS011;5597;47.588;9.642;2023-08-06T07:49:14;1.57;;;0.70;;
11086;SDS011;5597;47.588;9.642;2023-08-06T07:51:40;0.93;;;0.60;;
11086;SDS011;5597;47.588;9.642;2023-08-06T07:54:06;1.90;;;1.33;;
11086;SDS011;5597;47.588;9.642;2023-08-06T07:56:31;2.83;;;2.20;;
11086;SDS011;5597;47.588;9.642;2023-08-06T07:58:57;1.20;;;0.80;;
11086;SDS011;5597;47.588;9.642;2023-08-06T08:01:23;1.57;;;0.70;;
11086;SDS011;5597;47.588;9.642;2023-08-06T08:03:48;1.33;;;0.67;;
11086;SDS011;5597;47.588;9.642;2023-08-06T08:06:14;1.67;;;0.60;;
11086;SDS011;5597;47.588;9.642;2023-08-06T08:08:40;0.63;;;0.50;;
11086;SDS011;5597;47.588;9.642;2023-08-06T08:11:06;0.83;;;0.60;;
11086;SDS011;5597;47.588;9.642;2023-08-06T08:13:31;0.63;;;0.60;;
11086;SDS011;5597;47.588;9.642;2023-08-06T08:15:58;0.80;;;0.53;;
11086;SDS011;5597;47.588;9.642;2023-08-06T08:18:27;1.70;;;0.60;;
11086;SDS011;5597;47.588;9.642;2023-08-06T08:20:53;1.33;;;0.80;;
11086;SDS011;5597;47.588;9.642;2023-08-06T08:23:18;2.93;;;0.70;;
11086;SDS011;5597;47.588;9.642;2023-08-06T08:25:44;1.03;;;0.40;;
11086;SDS011;5597;47.588;9.642;2023-08-06T08:28:10;1.60;;;0.50;;
11086;SDS011;5597;47.588;9.642;2023-08-06T08:30:35;1.33;;;0.60;;
11086;SDS011;5597;47.588;9.642;2023-08-06T08:33:01;1.00;;;0.50;;
11086;SDS011;5597;47.588;9.642;2023-08-06T08:35:27;0.50;;;0.50;;
11086;SDS011;5597;47.588;9.642;2023-08-06T08:37:52;1.40;;;0.70;;
11086;SDS011;5597;47.588;9.642;2023-08-06T08:40:19;1.93;;;0.70;;
11086;SDS011;5597;47.588;9.642;2023-08-06T08:42:46;1.83;;;0.67;;
11086;SDS011;5597;47.588;9.642;2023-08-06T08:45:13;1.80;;;0.60;;
11086;SDS011;5597;47.588;9.642;2023-08-06T08:47:40;1.53;;;0.70;;
11086;SDS011;5597;47.588;9.642;2023-08-06T08:50:07;1.50;;;0.90;;
11086;SDS011;5597;47.588;9.642;2023-08-06T08:52:35;2.40;;;0.70;;
11086;SDS011;5597;47.588;9.642;2023-08-06T08:55:01;0.93;;;0.60;;
11086;SDS011;5597;47.588;9.642;2023-08-06T08:57:27;1.67;;;0.70;;
11086;SDS011;5597;47.588;9.642;2023-08-06T08:59:53;1.10;;;0.60;;
11086;SDS011;5597;47.588;9.642;2023-08-06T09:02:19;2.07;;;0.60;;
11086;SDS011;5597;47.588;9.642;2023-08-06T09:04:47;1.23;;;0.60;;
11086;SDS011;5597;47.588;9.642;2023-08-06T09:07:14;2.20;;;1.10;;
11086;SDS011;5597;47.588;9.642;2023-08-06T09:09:45;2.00;;;0.80;;
11086;SDS011;5597;47.588;9.642;2023-08-06T09:12:14;1.07;;;0.77;;
11086;SDS011;5597;47.588;9.642;2023-08-06T09:14:41;1.63;;;1.00;;
11086;SDS011;5597;47.588;9.642;2023-08-06T09:17:07;1.33;;;0.63;;
11086;SDS011;5597;47.588;9.642;2023-08-06T09:19:36;1.20;;;0.83;;
11086;SDS011;5597;47.588;9.642;2023-08-06T09:22:02;0.60;;;0.60;;
11086;SDS011;5597;47.588;9.642;2023-08-06T09:24:28;1.30;;;0.80;;
11086;SDS011;5597;47.588;9.642;2023-08-06T09:26:54;1.03;;;0.60;;
11086;SDS011;5597;47.588;9.642;2023-08-06T09:29:20;0.97;;;0.80;;
11086;SDS011;5597;47.588;9.642;2023-08-06T09:31:49;1.67;;;0.80;;
11086;SDS011;5597;47.588;9.642;2023-08-06T09:34:18;1.13;;;0.50;;
11086;SDS011;5597;47.588;9.642;2023-08-06T09:36:48;0.50;;;0.50;;
11086;SDS011;5597;47.588;9.642;2023-08-06T09:39:27;0.93;;;0.80;;
11086;SDS011;5597;47.588;9.642;2023-08-06T09:41:57;0.93;;;0.70;;
11086;SDS011;5597;47.588;9.642;2023-08-06T09:44:24;0.93;;;0.70;;
11086;SDS011;5597;47.588;9.642;2023-08-06T09:49:19;1.00;;;0.40;;
11086;SDS011;5597;47.588;9.642;2023-08-06T09:51:49;0.40;;;0.40;;
11086;SDS011;5597;47.588;9.642;2023-08-06T09:54:17;0.50;;;0.50;;
11086;SDS011;5597;47.588;9.642;2023-08-06T09:56:44;1.43;;;1.27;;
11086;SDS011;5597;47.588;9.642;2023-08-06T09:59:10;24.63;;;15.13;;
11086;SDS011;5597;47.588;9.642;2023-08-06T10:01:38;31.47;;;17.07;;
11086;SDS011;5597;47.588;9.642;2023-08-06T10:04:04;49.60;;;37.73;;
11086;SDS011;5597;47.588;9.642;2023-08-06T10:06:33;11.87;;;10.47;;
11086;SDS011;5597;47.588;9.642;2023-08-06T10:09:05;4.37;;;3.60;;
11086;SDS011;5597;47.588;9.642;2023-08-06T10:11:32;3.67;;;3.27;;
11086;SDS011;5597;47.588;9.642;2023-08-06T10:14:00;1.20;;;1.10;;
11086;SDS011;5597;47.588;9.642;2023-08-06T10:16:57;1.57;;;0.83;;
11086;SDS011;5597;47.588;9.642;2023-08-06T10:19:25;1.10;;;0.60;;
11086;SDS011;5597;47.588;9.642;2023-08-06T10:24:54;0.53;;;0.40;;
11086;SDS011;5597;47.588;9.642;2023-08-06T10:27:30;2.20;;;0.40;;
11086;SDS011;5597;47.588;9.642;2023-08-06T10:32:54;0.70;;;0.43;;
11086;SDS011;5597;47.588;9.642;2023-08-06T10:38:10;1.20;;;0.33;;
11086;SDS011;5597;47.588;9.642;2023-08-06T10:40:48;0.40;;;0.33;;
11086;SDS011;5597;47.588;9.642;2023-08-06T10:43:38;0.60;;;0.40;;
11086;SDS011;5597;47.588;9.642;2023-08-06T10:46:09;0.43;;;0.43;;
11086;SDS011;5597;47.588;9.642;2023-08-06T10:48:39;0.30;;;0.30;;
11086;SDS011;5597;47.588;9.642;2023-08-06T10:51:10;1.50;;;0.47;;
11086;SDS011;5597;47.588;9.642;2023-08-06T10:53:36;1.70;;;0.40;;
11086;SDS011;5597;47.588;9.642;2023-08-06T10:56:22;0.30;;;0.30;;
11086;SDS011;5597;47.588;9.642;2023-08-06T10:58:50;0.60;;;0.40;;
11086;SDS011;5597;47.588;9.642;2023-08-06T11:01:18;0.30;;;0.30;;
11086;SDS011;5597;47.588;9.642;2023-08-06T11:03:45;0.87;;;0.30;;
11086;SDS011;5597;47.588;9.642;2023-08-06T11:06:16;0.20;;;0.20;;
11086;SDS011;5597;47.588;9.642;2023-08-06T11:08:50;0.70;;;0.60;;
11086;SDS011;5597;47.588;9.642;2023-08-06T11:11:18;0.40;;;0.40;;
11086;SDS011;5597;47.588;9.642;2023-08-06T11:13:44;5.67;;;4.50;;
11086;SDS011;5597;47.588;9.642;2023-08-06T11:16:12;1.03;;;0.90;;
11086;SDS011;5597;47.588;9.642;2023-08-06T11:18:39;0.80;;;0.70;;
11086;SDS011;5597;47.588;9.642;2023-08-06T11:21:07;0.73;;;0.40;;
11086;SDS011;5597;47.588;9.642;2023-08-06T11:23:33;0.30;;;0.30;;
11086;SDS011;5597;47.588;9.642;2023-08-06T11:26:00;1.80;;;1.17;;
11086;SDS011;5597;47.588;9.642;2023-08-06T11:28:26;2.03;;;1.80;;
11086;SDS011;5597;47.588;9.642;2023-08-06T11:30:52;0.50;;;0.50;;
11086;SDS011;5597;47.588;9.642;2023-08-06T11:33:23;0.50;;;0.50;;
11086;SDS011;5597;47.588;9.642;2023-08-06T11:35:51;0.30;;;0.30;;
11086;SDS011;5597;47.588;9.642;2023-08-06T11:38:17;0.27;;;0.27;;
11086;SDS011;5597;47.588;9.642;2023-08-06T11:40:46;0.57;;;0.20;;
11086;SDS011;5597;47.588;9.642;2023-08-06T11:43:12;0.33;;;0.13;;
11086;SDS011;5597;47.588;9.642;2023-08-06T11:45:38;1.07;;;0.20;;
11086;SDS011;5597;47.588;9.642;2023-08-06T11:48:05;0.20;;;0.20;;
11086;SDS011;5597;47.588;9.642;2023-08-06T11:50:35;0.77;;;0.17;;
11086;SDS011;5597;47.588;9.642;2023-08-06T11:53:03;0.13;;;0.13;;
11086;SDS011;5597;47.588;9.642;2023-08-06T11:55:29;0.33;;;0.20;;
11086;SDS011;5597;47.588;9.642;2023-08-06T11:57:55;0.10;;;0.10;;
11086;SDS011;5597;47.588;9.642;2023-08-06T12:00:22;0.10;;;0.10;;
11086;SDS011;5597;47.588;9.642;2023-08-06T12:02:49;0.40;;;0.30;;
11086;SDS011;5597;47.588;9.642;2023-08-06T12:05:17;0.20;;;0.20;;
11086;SDS011;5597;47.588;9.642;2023-08-06T12:07:57;0.30;;;0.23;;
11086;SDS011;5597;47.588;9.642;2023-08-06T12:10:24;0.20;;;0.20;;
11086;SDS011;5597;47.588;9.642;2023-08-06T12:12:51;0.30;;;0.30;;
11086;SDS011;5597;47.588;9.642;2023-08-06T12:15:17;0.20;;;0.20;;
11086;SDS011;5597;47.588;9.642;2023-08-06T12:17:43;0.20;;;0.20;;
11086;SDS011;5597;47.588;9.642;2023-08-06T12:20:09;0.53;;;0.40;;
11086;SDS011;5597;47.588;9.642;2023-08-06T12:22:35;0.30;;;0.30;;
11086;SDS011;5597;47.588;9.642;2023-08-06T12:25:04;0.40;;;0.30;;
11086;SDS011;5597;47.588;9.642;2023-08-06T12:27:42;0.37;;;0.37;;
11086;SDS011;5597;47.588;9.642;2023-08-06T12:30:09;0.83;;;0.43;;
11086;SDS011;5597;47.588;9.642;2023-08-06T12:32:35;0.53;;;0.50;;
11086;SDS011;5597;47.588;9.642;2023-08-06T12:35:05;0.93;;;0.40;;
11086;SDS011;5597;47.588;9.642;2023-08-06T12:37:32;0.50;;;0.50;;
11086;SDS011;5597;47.588;9.642;2023-08-06T12:39:58;0.80;;;0.40;;
11086;SDS011;5597;47.588;9.642;2023-08-06T12:42:24;0.93;;;0.70;;
11086;SDS011;5597;47.588;9.642;2023-08-06T12:44:50;1.00;;;0.67;;
11086;SDS011;5597;47.588;9.642;2023-08-06T12:47:16;0.20;;;0.20;;
11086;SDS011;5597;47.588;9.642;2023-08-06T12:49:42;0.20;;;0.13;;
11086;SDS011;5597;47.588;9.642;2023-08-06T12:52:08;0.33;;;0.10;;
11086;SDS011;5597;47.588;9.642;2023-08-06T12:54:34;1.23;;;0.10;;
11086;SDS011;5597;47.588;9.642;2023-08-06T12:57:03;0.10;;;0.10;;
11086;SDS011;5597;47.588;9.642;2023-08-06T12:59:29;0.20;;;0.20;;
11086;SDS011;5597;47.588;9.642;2023-08-06T13:01:55;0.20;;;0.20;;
11086;SDS011;5597;47.588;9.642;2023-08-06T13:04:21;1.03;;;0.20;;
11086;SDS011;5597;47.588;9.642;2023-08-06T13:06:47;0.23;;;0.23;;
11086;SDS011;5597;47.588;9.642;2023-08-06T13:09:13;0.10;;;0.10;;
11086;SDS011;5597;47.588;9.642;2023-08-06T13:11:39;0.67;;;0.40;;
11086;SDS011;5597;47.588;9.642;2023-08-06T13:14:06;0.20;;;0.20;;
11086;SDS011;5597;47.588;9.642;2023-08-06T13:16:37;0.80;;;0.23;;
11086;SDS011;5597;47.588;9.642;2023-08-06T13:19:04;0.20;;;0.20;;
11086;SDS011;5597;47.588;9.642;2023-08-06T13:21:32;0.60;;;0.40;;
11086;SDS011;5597;47.588;9.642;2023-08-06T13:24:00;1.30;;;0.30;;
11086;SDS011;5597;47.588;9.642;2023-08-06T13:26:29;1.10;;;0.30;;
11086;SDS011;5597;47.588;9.642;2023-08-06T13:28:56;0.47;;;0.27;;
11086;SDS011;5597;47.588;9.642;2023-08-06T13:31:22;1.07;;;0.30;;
11086;SDS011;5597;47.588;9.642;2023-08-06T13:33:48;0.70;;;0.60;;
11086;SDS011;5597;47.588;9.642;2023-08-06T13:36:15;0.40;;;0.40;;
11086;SDS011;5597;47.588;9.642;2023-08-06T13:38:43;0.20;;;0.20;;
11086;SDS011;5597;47.588;9.642;2023-08-06T13:41:09;0.43;;;0.20;;
11086;SDS011;5597;47.588;9.642;2023-08-06T13:43:34;0.20;;;0.20;;
11086;SDS011;5597;47.588;9.642;2023-08-06T13:46:00;0.40;;;0.30;;
11086;SDS011;5597;47.588;9.642;2023-08-06T13:48:26;2.67;;;0.30;;
11086;SDS011;5597;47.588;9.642;2023-08-06T13:50:52;0.13;;;0.13;;
11086;SDS011;5597;47.588;9.642;2023-08-06T13:53:17;0.23;;;0.23;;
11086;SDS011;5597;47.588;9.642;2023-08-06T13:55:43;1.03;;;0.50;;
11086;SDS011;5597;47.588;9.642;2023-08-06T13:58:11;0.30;;;0.30;;
11086;SDS011;5597;47.588;9.642;2023-08-06T14:00:36;0.40;;;0.40;;
11086;SDS011;5597;47.588;9.642;2023-08-06T14:03:02;0.70;;;0.50;;
11086;SDS011;5597;47.588;9.642;2023-08-06T14:05:28;0.30;;;0.30;;
11086;SDS011;5597;47.588;9.642;2023-08-06T14:07:54;0.30;;;0.30;;
11086;SDS011;5597;47.588;9.642;2023-08-06T14:10:20;0.40;;;0.40;;
11086;SDS011;5597;47.588;9.642;2023-08-06T14:12:45;0.40;;;0.40;;
11086;SDS011;5597;47.588;9.642;2023-08-06T14:15:11;0.67;;;0.50;;
11086;SDS011;5597;47.588;9.642;2023-08-06T14:17:37;0.60;;;0.50;;
11086;SDS011;5597;47.588;9.642;2023-08-06T14:20:03;1.50;;;0.50;;
11086;SDS011;5597;47.588;9.642;2023-08-06T14:22:32;0.40;;;0.40;;
11086;SDS011;5597;47.588;9.642;2023-08-06T14:24:58;0.50;;;0.50;;
11086;SDS011;5597;47.588;9.642;2023-08-06T14:27:24;0.80;;;0.57;;
11086;SDS011;5597;47.588;9.642;2023-08-06T14:29:50;0.73;;;0.53;;
11086;SDS011;5597;47.588;9.642;2023-08-06T14:32:16;0.93;;;0.40;;
11086;SDS011;5597;47.588;9.642;2023-08-06T14:34:43;0.60;;;0.50;;
11086;SDS011;5597;47.588;9.642;2023-08-06T14:37:09;0.40;;;0.40;;
11086;SDS011;5597;47.588;9.642;2023-08-06T14:39:35;0.40;;;0.40;;
11086;SDS011;5597;47.588;9.642;2023-08-06T14:42:01;0.40;;;0.40;;
11086;SDS011;5597;47.588;9.642;2023-08-06T14:44:28;0.43;;;0.43;;
11086;SDS011;5597;47.588;9.642;2023-08-06T14:46:53;1.63;;;0.60;;
11086;SDS011;5597;47.588;9.642;2023-08-06T14:49:19;1.23;;;0.70;;
11086;SDS011;5597;47.588;9.642;2023-08-06T14:51:45;0.57;;;0.57;;
11086;SDS011;5597;47.588;9.642;2023-08-06T14:54:11;0.63;;;0.60;;
11086;SDS011;5597;47.588;9.642;2023-08-06T14:56:36;0.60;;;0.60;;
11086;SDS011;5597;47.588;9.642;2023-08-06T14:59:02;0.90;;;0.60;;
11086;SDS011;5597;47.588;9.642;2023-08-06T15:01:28;0.70;;;0.70;;
11086;SDS011;5597;47.588;9.642;2023-08-06T15:03:53;1.37;;;0.70;;
11086;SDS011;5597;47.588;9.642;2023-08-06T15:06:19;1.60;;;0.67;;
11086;SDS011;5597;47.588;9.642;2023-08-06T15:08:45;0.87;;;0.73;;
11086;SDS011;5597;47.588;9.642;2023-08-06T15:11:12;0.67;;;0.67;;
11086;SDS011;5597;47.588;9.642;2023-08-06T15:13:38;0.67;;;0.67;;
11086;SDS011;5597;47.588;9.642;2023-08-06T15:16:04;0.90;;;0.70;;